KLEB

Lebanon Municipal Airport

Lebanon, New Hampshire, USA
METAR KLEB 201953Z 05004KT 10SM CLR 26/13 A3015 RMK AO2 SLP200 T02560128
Observed Flight Rules
Aug-20 @ 19:53 UTC (38 minutes ago) Visual Flight Rules
Wind Visibility Clouds
50° at 4 knots 10 miles
  • Clear skies
Temperatures Readings
Current 26°C / 79°F
Dewpoint 13°C / 55°F
Humidity 45%
Altimeter 30.15" Hg
Pressure 1020 hPa
Elevation 171
METAR KLEB 201953Z 05004KT 10SM CLR 26/13 A3015 RMK AO2 SLP200 T02560128
Observed Flight Rules
Aug-20 @ 19:53 UTC
(38 minutes ago)
VFR
Wind Visibility
50° at 4 knots 10 miles
Clouds
  • Clear skies
Temperature Dewpoint
26°C / 79°F 13°C / 55°F
Humidity Altimeter Pressure
45% 30.15" Hg 1020 hPa